sensor_id;sensor_type;location;lat;lon;timestamp;pressure;altitude;pressure_sealevel;temperature;humidity
50430;BME280;36359;41.556;-8.418;2023-04-08T00:01:58;99985.19;;;16.23;63.58
50430;BME280;36359;41.556;-8.418;2023-04-08T00:04:24;99989.63;;;16.24;62.72
50430;BME280;36359;41.556;-8.418;2023-04-08T00:06:50;99987.94;;;16.23;63.11
50430;BME280;36359;41.556;-8.418;2023-04-08T00:09:15;99984.28;;;16.16;63.46
50430;BME280;36359;41.556;-8.418;2023-04-08T00:11:41;99988.31;;;15.98;63.76
50430;BME280;36359;41.556;-8.418;2023-04-08T00:14:07;99991.53;;;15.87;63.68
50430;BME280;36359;41.556;-8.418;2023-04-08T00:16:33;99988.25;;;15.92;63.83
50430;BME280;36359;41.556;-8.418;2023-04-08T00:18:58;99987.38;;;15.91;63.26
50430;BME280;36359;41.556;-8.418;2023-04-08T00:21:24;99984.63;;;15.91;62.62
50430;BME280;36359;41.556;-8.418;2023-04-08T00:23:51;99979.16;;;15.91;61.61
50430;BME280;36359;41.556;-8.418;2023-04-08T00:26:17;99973.97;;;15.96;61.12
50430;BME280;36359;41.556;-8.418;2023-04-08T00:28:43;99975.13;;;15.87;61.39
50430;BME280;36359;41.556;-8.418;2023-04-08T00:31:09;99973.34;;;15.79;62.54
50430;BME280;36359;41.556;-8.418;2023-04-08T00:33:35;99984.78;;;15.83;62.99
50430;BME280;36359;41.556;-8.418;2023-04-08T00:36:01;99978.66;;;15.51;64.41
50430;BME280;36359;41.556;-8.418;2023-04-08T00:38:26;99974.88;;;15.37;64.30
50430;BME280;36359;41.556;-8.418;2023-04-08T00:40:52;99966.31;;;15.26;63.22
50430;BME280;36359;41.556;-8.418;2023-04-08T00:43:18;99972.38;;;15.21;62.47
50430;BME280;36359;41.556;-8.418;2023-04-08T00:45:46;99978.38;;;15.16;61.25
50430;BME280;36359;41.556;-8.418;2023-04-08T00:48:12;99975.56;;;15.25;59.00
50430;BME280;36359;41.556;-8.418;2023-04-08T00:50:38;99971.41;;;15.29;59.08
50430;BME280;36359;41.556;-8.418;2023-04-08T00:53:04;99981.69;;;15.56;57.57
50430;BME280;36359;41.556;-8.418;2023-04-08T00:55:30;99981.00;;;15.54;55.77
50430;BME280;36359;41.556;-8.418;2023-04-08T00:57:56;99976.78;;;15.52;55.75
50430;BME280;36359;41.556;-8.418;2023-04-08T01:00:22;99975.53;;;15.54;55.37
50430;BME280;36359;41.556;-8.418;2023-04-08T01:05:41;99973.84;;;15.53;56.25
50430;BME280;36359;41.556;-8.418;2023-04-08T01:08:10;99971.97;;;15.39;56.54
50430;BME280;36359;41.556;-8.418;2023-04-08T01:10:38;99968.09;;;15.48;57.86
50430;BME280;36359;41.556;-8.418;2023-04-08T01:13:08;99966.28;;;15.55;58.43
50430;BME280;36359;41.556;-8.418;2023-04-08T01:15:37;99963.75;;;15.54;58.79
50430;BME280;36359;41.556;-8.418;2023-04-08T01:18:11;99957.06;;;15.56;59.32
50430;BME280;36359;41.556;-8.418;2023-04-08T01:20:40;99960.94;;;15.47;60.26
50430;BME280;36359;41.556;-8.418;2023-04-08T01:23:22;99961.81;;;15.33;60.46
50430;BME280;36359;41.556;-8.418;2023-04-08T01:25:54;99959.25;;;15.02;60.72
50430;BME280;36359;41.556;-8.418;2023-04-08T01:28:21;99959.19;;;15.10;61.61
50430;BME280;36359;41.556;-8.418;2023-04-08T01:30:50;99946.44;;;14.87;60.40
50430;BME280;36359;41.556;-8.418;2023-04-08T01:33:18;99961.91;;;14.95;60.65
50430;BME280;36359;41.556;-8.418;2023-04-08T01:35:46;99947.50;;;15.16;65.59
50430;BME280;36359;41.556;-8.418;2023-04-08T01:38:19;99945.50;;;15.25;62.86
50430;BME280;36359;41.556;-8.418;2023-04-08T01:40:46;99951.63;;;15.41;61.74
50430;BME280;36359;41.556;-8.418;2023-04-08T01:43:14;99941.09;;;15.24;61.76
50430;BME280;36359;41.556;-8.418;2023-04-08T01:45:43;99938.25;;;15.02;62.10
50430;BME280;36359;41.556;-8.418;2023-04-08T01:48:12;99937.78;;;14.98;61.84
50430;BME280;36359;41.556;-8.418;2023-04-08T01:50:40;99933.44;;;15.04;61.11
50430;BME280;36359;41.556;-8.418;2023-04-08T01:53:08;99938.25;;;15.02;60.98
50430;BME280;36359;41.556;-8.418;2023-04-08T01:55:36;99934.28;;;14.90;61.18
50430;BME280;36359;41.556;-8.418;2023-04-08T01:58:05;99929.19;;;14.87;63.02
50430;BME280;36359;41.556;-8.418;2023-04-08T02:00:33;99938.81;;;14.83;64.45
50430;BME280;36359;41.556;-8.418;2023-04-08T02:03:00;99927.78;;;14.91;61.03
50430;BME280;36359;41.556;-8.418;2023-04-08T02:05:27;99933.22;;;14.76;60.89
50430;BME280;36359;41.556;-8.418;2023-04-08T02:07:53;99926.06;;;14.60;60.52
50430;BME280;36359;41.556;-8.418;2023-04-08T02:10:19;99922.59;;;14.66;61.50
50430;BME280;36359;41.556;-8.418;2023-04-08T02:12:45;99921.94;;;14.79;61.59
50430;BME280;36359;41.556;-8.418;2023-04-08T02:15:11;99923.56;;;14.88;64.47
50430;BME280;36359;41.556;-8.418;2023-04-08T02:17:46;99926.00;;;14.68;62.22
50430;BME280;36359;41.556;-8.418;2023-04-08T02:20:21;99918.91;;;14.59;62.08
50430;BME280;36359;41.556;-8.418;2023-04-08T02:22:59;99923.34;;;14.60;61.83
50430;BME280;36359;41.556;-8.418;2023-04-08T02:25:59;99914.69;;;14.34;61.31
50430;BME280;36359;41.556;-8.418;2023-04-08T02:28:27;99910.97;;;14.26;61.96
50430;BME280;36359;41.556;-8.418;2023-04-08T02:30:56;99901.03;;;14.34;61.81
50430;BME280;36359;41.556;-8.418;2023-04-08T02:33:22;99910.50;;;14.00;63.48
50430;BME280;36359;41.556;-8.418;2023-04-08T02:35:51;99903.84;;;14.25;64.88
50430;BME280;36359;41.556;-8.418;2023-04-08T02:38:20;99907.34;;;14.57;67.35
50430;BME280;36359;41.556;-8.418;2023-04-08T02:40:48;99904.03;;;14.62;62.75
50430;BME280;36359;41.556;-8.418;2023-04-08T02:43:15;99900.47;;;14.76;63.62
50430;BME280;36359;41.556;-8.418;2023-04-08T02:45:42;99900.19;;;14.71;61.52
50430;BME280;36359;41.556;-8.418;2023-04-08T02:48:08;99893.97;;;14.62;61.23
50430;BME280;36359;41.556;-8.418;2023-04-08T02:50:34;99900.75;;;14.66;62.87
50430;BME280;36359;41.556;-8.418;2023-04-08T02:53:00;99893.59;;;14.65;61.08
50430;BME280;36359;41.556;-8.418;2023-04-08T02:55:27;99899.94;;;14.43;62.63
50430;BME280;36359;41.556;-8.418;2023-04-08T02:57:53;99893.91;;;14.32;61.12
50430;BME280;36359;41.556;-8.418;2023-04-08T03:00:18;99893.19;;;14.16;61.35
50430;BME280;36359;41.556;-8.418;2023-04-08T03:02:44;99888.19;;;14.19;62.41
50430;BME280;36359;41.556;-8.418;2023-04-08T03:05:10;99891.13;;;14.18;62.52
50430;BME280;36359;41.556;-8.418;2023-04-08T03:07:36;99895.72;;;14.17;62.25
50430;BME280;36359;41.556;-8.418;2023-04-08T03:10:02;99891.34;;;14.31;62.08
50430;BME280;36359;41.556;-8.418;2023-04-08T03:12:28;99892.19;;;14.31;61.07
50430;BME280;36359;41.556;-8.418;2023-04-08T03:14:54;99881.84;;;14.27;62.74
50430;BME280;36359;41.556;-8.418;2023-04-08T03:17:20;99887.00;;;13.99;65.13
50430;BME280;36359;41.556;-8.418;2023-04-08T03:19:46;99884.34;;;13.91;67.37
50430;BME280;36359;41.556;-8.418;2023-04-08T03:22:12;99885.06;;;13.84;68.80
50430;BME280;36359;41.556;-8.418;2023-04-08T03:24:38;99880.09;;;13.88;72.34
50430;BME280;36359;41.556;-8.418;2023-04-08T03:27:04;99879.97;;;13.81;70.35
50430;BME280;36359;41.556;-8.418;2023-04-08T03:29:30;99878.56;;;14.08;70.26
50430;BME280;36359;41.556;-8.418;2023-04-08T03:31:55;99886.41;;;13.89;70.02
50430;BME280;36359;41.556;-8.418;2023-04-08T03:34:21;99876.06;;;14.22;68.93
50430;BME280;36359;41.556;-8.418;2023-04-08T03:36:47;99879.84;;;14.21;69.90
50430;BME280;36359;41.556;-8.418;2023-04-08T03:39:22;99881.25;;;14.31;70.28
50430;BME280;36359;41.556;-8.418;2023-04-08T03:41:47;99877.09;;;14.06;70.96
50430;BME280;36359;41.556;-8.418;2023-04-08T03:44:13;99878.16;;;13.97;70.88
50430;BME280;36359;41.556;-8.418;2023-04-08T03:46:39;99877.66;;;14.16;69.42
50430;BME280;36359;41.556;-8.418;2023-04-08T03:49:04;99875.06;;;14.00;69.80
50430;BME280;36359;41.556;-8.418;2023-04-08T03:51:50;99876.84;;;13.93;69.64
50430;BME280;36359;41.556;-8.418;2023-04-08T03:54:18;99875.16;;;13.92;69.69
50430;BME280;36359;41.556;-8.418;2023-04-08T03:56:44;99877.78;;;14.00;69.01
50430;BME280;36359;41.556;-8.418;2023-04-08T03:59:10;99874.22;;;14.37;67.92
50430;BME280;36359;41.556;-8.418;2023-04-08T04:01:35;99868.28;;;14.34;67.41
50430;BME280;36359;41.556;-8.418;2023-04-08T04:04:01;99877.13;;;13.98;67.60
50430;BME280;36359;41.556;-8.418;2023-04-08T04:06:27;99868.22;;;14.04;66.12
50430;BME280;36359;41.556;-8.418;2023-04-08T04:08:53;99875.72;;;14.25;65.25
50430;BME280;36359;41.556;-8.418;2023-04-08T04:11:19;99870.94;;;14.04;64.58
50430;BME280;36359;41.556;-8.418;2023-04-08T04:13:47;99872.19;;;14.16;65.46
50430;BME280;36359;41.556;-8.418;2023-04-08T04:16:13;99872.09;;;14.09;65.17
50430;BME280;36359;41.556;-8.418;2023-04-08T04:18:38;99865.34;;;14.20;65.80
50430;BME280;36359;41.556;-8.418;2023-04-08T04:21:05;99873.31;;;14.07;65.17
50430;BME280;36359;41.556;-8.418;2023-04-08T04:23:31;99870.22;;;14.10;65.32
50430;BME280;36359;41.556;-8.418;2023-04-08T04:25:57;99881.16;;;14.25;66.27
50430;BME280;36359;41.556;-8.418;2023-04-08T04:28:23;99874.69;;;14.03;63.59
50430;BME280;36359;41.556;-8.418;2023-04-08T04:30:48;99874.00;;;13.86;62.05
50430;BME280;36359;41.556;-8.418;2023-04-08T04:33:14;99881.00;;;13.57;61.20
50430;BME280;36359;41.556;-8.418;2023-04-08T04:35:40;99878.53;;;13.48;61.39
50430;BME280;36359;41.556;-8.418;2023-04-08T04:38:06;99889.25;;;13.72;66.24
50430;BME280;36359;41.556;-8.418;2023-04-08T04:40:37;99881.84;;;13.58;63.11
50430;BME280;36359;41.556;-8.418;2023-04-08T04:43:04;99892.06;;;13.56;63.40
50430;BME280;36359;41.556;-8.418;2023-04-08T04:45:30;99893.16;;;13.47;64.42
50430;BME280;36359;41.556;-8.418;2023-04-08T04:47:55;99892.00;;;13.41;68.10
50430;BME280;36359;41.556;-8.418;2023-04-08T04:50:21;99889.50;;;13.31;68.50
50430;BME280;36359;41.556;-8.418;2023-04-08T04:52:47;99888.84;;;13.21;68.61
50430;BME280;36359;41.556;-8.418;2023-04-08T04:55:12;99884.66;;;13.02;70.26
50430;BME280;36359;41.556;-8.418;2023-04-08T04:57:40;99887.53;;;13.48;71.57
50430;BME280;36359;41.556;-8.418;2023-04-08T05:00:06;99889.13;;;13.34;70.55
50430;BME280;36359;41.556;-8.418;2023-04-08T05:02:33;99884.41;;;13.28;71.45
50430;BME280;36359;41.556;-8.418;2023-04-08T05:04:58;99888.16;;;13.19;72.44
50430;BME280;36359;41.556;-8.418;2023-04-08T05:07:24;99901.09;;;13.25;73.05
50430;BME280;36359;41.556;-8.418;2023-04-08T05:09:50;99895.00;;;13.15;73.50
50430;BME280;36359;41.556;-8.418;2023-04-08T05:12:15;99898.56;;;13.15;74.82
50430;BME280;36359;41.556;-8.418;2023-04-08T05:14:41;99904.50;;;13.27;74.51
50430;BME280;36359;41.556;-8.418;2023-04-08T05:17:07;99901.44;;;13.30;74.25
50430;BME280;36359;41.556;-8.418;2023-04-08T05:19:32;99902.16;;;13.16;75.38
50430;BME280;36359;41.556;-8.418;2023-04-08T05:21:58;99894.81;;;13.16;74.89
50430;BME280;36359;41.556;-8.418;2023-04-08T05:24:24;99893.72;;;12.94;75.91
50430;BME280;36359;41.556;-8.418;2023-04-08T05:26:49;99912.75;;;13.03;75.60
50430;BME280;36359;41.556;-8.418;2023-04-08T05:29:17;99905.59;;;13.02;75.36
50430;BME280;36359;41.556;-8.418;2023-04-08T05:31:44;99907.25;;;13.27;75.79
50430;BME280;36359;41.556;-8.418;2023-04-08T05:34:10;99901.78;;;13.27;73.28
50430;BME280;36359;41.556;-8.418;2023-04-08T05:36:36;99906.56;;;13.25;73.21
50430;BME280;36359;41.556;-8.418;2023-04-08T05:39:01;99912.34;;;13.22;72.18
50430;BME280;36359;41.556;-8.418;2023-04-08T05:41:27;99907.66;;;13.47;74.25
50430;BME280;36359;41.556;-8.418;2023-04-08T05:43:53;99912.34;;;13.30;71.79
50430;BME280;36359;41.556;-8.418;2023-04-08T05:46:19;99912.50;;;13.29;71.53
50430;BME280;36359;41.556;-8.418;2023-04-08T05:48:44;99917.22;;;13.35;75.00
50430;BME280;36359;41.556;-8.418;2023-04-08T05:51:13;99916.94;;;13.30;71.85
50430;BME280;36359;41.556;-8.418;2023-04-08T05:53:40;99919.53;;;13.15;71.50
50430;BME280;36359;41.556;-8.418;2023-04-08T05:56:05;99910.56;;;12.98;71.83
50430;BME280;36359;41.556;-8.418;2023-04-08T05:58:31;99925.13;;;13.30;72.40
50430;BME280;36359;41.556;-8.418;2023-04-08T06:00:57;99928.06;;;13.04;71.38
50430;BME280;36359;41.556;-8.418;2023-04-08T06:03:23;99922.66;;;12.87;69.96
50430;BME280;36359;41.556;-8.418;2023-04-08T06:05:48;99931.59;;;12.65;71.06
50430;BME280;36359;41.556;-8.418;2023-04-08T06:08:14;99935.63;;;12.85;70.94
50430;BME280;36359;41.556;-8.418;2023-04-08T06:10:47;99935.41;;;12.95;71.52
50430;BME280;36359;41.556;-8.418;2023-04-08T06:13:13;99942.69;;;13.03;73.71
50430;BME280;36359;41.556;-8.418;2023-04-08T06:15:40;99941.22;;;12.92;73.68
50430;BME280;36359;41.556;-8.418;2023-04-08T06:18:06;99946.34;;;12.79;74.13
50430;BME280;36359;41.556;-8.418;2023-04-08T06:20:31;99943.72;;;13.02;74.73
50430;BME280;36359;41.556;-8.418;2023-04-08T06:22:57;99955.44;;;13.10;73.01
50430;BME280;36359;41.556;-8.418;2023-04-08T06:25:22;99955.81;;;13.07;71.92
50430;BME280;36359;41.556;-8.418;2023-04-08T06:27:49;99953.44;;;12.96;71.42
50430;BME280;36359;41.556;-8.418;2023-04-08T06:30:14;99957.00;;;12.96;74.62
50430;BME280;36359;41.556;-8.418;2023-04-08T06:32:41;99958.66;;;13.14;72.74
50430;BME280;36359;41.556;-8.418;2023-04-08T06:35:06;99957.50;;;13.08;72.58
50430;BME280;36359;41.556;-8.418;2023-04-08T06:37:32;99966.91;;;12.89;75.09
50430;BME280;36359;41.556;-8.418;2023-04-08T06:40:04;99958.66;;;13.30;73.06
50430;BME280;36359;41.556;-8.418;2023-04-08T06:42:29;99966.50;;;13.25;73.24
50430;BME280;36359;41.556;-8.418;2023-04-08T06:45:07;99970.25;;;13.08;75.58
50430;BME280;36359;41.556;-8.418;2023-04-08T06:47:33;99973.31;;;13.13;75.33
50430;BME280;36359;41.556;-8.418;2023-04-08T06:49:58;99977.09;;;13.12;75.17
50430;BME280;36359;41.556;-8.418;2023-04-08T06:52:25;99973.66;;;13.10;75.50
50430;BME280;36359;41.556;-8.418;2023-04-08T06:54:50;99980.19;;;12.92;77.41
50430;BME280;36359;41.556;-8.418;2023-04-08T06:59:45;99981.47;;;13.21;75.99
50430;BME280;36359;41.556;-8.418;2023-04-08T07:02:11;99980.59;;;13.21;77.63
50430;BME280;36359;41.556;-8.418;2023-04-08T07:04:36;99982.78;;;13.42;75.43
50430;BME280;36359;41.556;-8.418;2023-04-08T07:07:02;99975.94;;;13.46;75.40
50430;BME280;36359;41.556;-8.418;2023-04-08T07:09:28;99983.16;;;13.38;76.02
50430;BME280;36359;41.556;-8.418;2023-04-08T07:11:54;99986.84;;;13.46;76.41
50430;BME280;36359;41.556;-8.418;2023-04-08T07:14:20;99988.72;;;13.45;76.43
50430;BME280;36359;41.556;-8.418;2023-04-08T07:16:45;99990.75;;;13.51;75.86
50430;BME280;36359;41.556;-8.418;2023-04-08T07:19:11;99989.91;;;13.82;73.52
50430;BME280;36359;41.556;-8.418;2023-04-08T07:21:37;99989.53;;;13.85;72.65
50430;BME280;36359;41.556;-8.418;2023-04-08T07:24:02;99991.25;;;13.86;71.97
50430;BME280;36359;41.556;-8.418;2023-04-08T07:26:28;99994.44;;;13.98;71.71
50430;BME280;36359;41.556;-8.418;2023-04-08T07:28:54;99998.75;;;14.15;71.42
50430;BME280;36359;41.556;-8.418;2023-04-08T07:31:20;99996.63;;;14.25;70.52
50430;BME280;36359;41.556;-8.418;2023-04-08T07:33:45;100003.06;;;14.32;69.71
50430;BME280;36359;41.556;-8.418;2023-04-08T07:36:12;100007.94;;;14.37;68.90
50430;BME280;36359;41.556;-8.418;2023-04-08T07:38:38;100004.75;;;14.34;70.54
50430;BME280;36359;41.556;-8.418;2023-04-08T07:41:04;100005.06;;;14.39;70.28
50430;BME280;36359;41.556;-8.418;2023-04-08T07:43:30;100006.38;;;14.43;69.66
50430;BME280;36359;41.556;-8.418;2023-04-08T07:46:00;99993.94;;;14.63;69.67
50430;BME280;36359;41.556;-8.418;2023-04-08T07:48:32;100008.34;;;14.57;69.35
50430;BME280;36359;41.556;-8.418;2023-04-08T07:51:08;99998.19;;;14.66;68.97
50430;BME280;36359;41.556;-8.418;2023-04-08T07:53:34;99997.34;;;14.65;69.43
50430;BME280;36359;41.556;-8.418;2023-04-08T07:56:00;99996.06;;;14.91;67.29
50430;BME280;36359;41.556;-8.418;2023-04-08T07:58:28;100003.34;;;14.98;64.10
50430;BME280;36359;41.556;-8.418;2023-04-08T08:00:56;99999.69;;;15.06;62.30
50430;BME280;36359;41.556;-8.418;2023-04-08T08:03:22;99998.84;;;15.35;63.36
50430;BME280;36359;41.556;-8.418;2023-04-08T08:05:48;99999.69;;;15.51;64.24
50430;BME280;36359;41.556;-8.418;2023-04-08T08:08:14;100007.44;;;15.47;55.80
50430;BME280;36359;41.556;-8.418;2023-04-08T08:10:39;100008.44;;;15.46;56.19
50430;BME280;36359;41.556;-8.418;2023-04-08T08:13:06;100001.59;;;15.50;58.02
50430;BME280;36359;41.556;-8.418;2023-04-08T08:15:32;100002.97;;;15.61;56.54
50430;BME280;36359;41.556;-8.418;2023-04-08T08:17:58;100005.25;;;15.72;57.77
50430;BME280;36359;41.556;-8.418;2023-04-08T08:20:23;100008.28;;;15.77;63.19
50430;BME280;36359;41.556;-8.418;2023-04-08T08:22:49;100010.53;;;15.74;67.54
50430;BME280;36359;41.556;-8.418;2023-04-08T08:25:15;100003.06;;;15.67;66.34
50430;BME280;36359;41.556;-8.418;2023-04-08T08:27:42;100006.38;;;15.78;67.06
50430;BME280;36359;41.556;-8.418;2023-04-08T08:30:08;100001.84;;;15.55;68.04
50430;BME280;36359;41.556;-8.418;2023-04-08T08:32:34;100007.88;;;15.65;68.89
50430;BME280;36359;41.556;-8.418;2023-04-08T08:35:01;100006.09;;;15.58;67.74
50430;BME280;36359;41.556;-8.418;2023-04-08T08:37:26;100008.91;;;15.79;66.94
50430;BME280;36359;41.556;-8.418;2023-04-08T08:39:52;100011.31;;;16.04;65.50
50430;BME280;36359;41.556;-8.418;2023-04-08T08:42:19;100012.19;;;16.26;64.91
50430;BME280;36359;41.556;-8.418;2023-04-08T08:44:46;100019.88;;;16.37;64.73
50430;BME280;36359;41.556;-8.418;2023-04-08T08:47:11;100016.34;;;16.22;65.04
50430;BME280;36359;41.556;-8.418;2023-04-08T08:49:37;100013.28;;;16.31;65.27
50430;BME280;36359;41.556;-8.418;2023-04-08T08:52:03;100017.00;;;16.45;65.11
50430;BME280;36359;41.556;-8.418;2023-04-08T08:54:29;100018.94;;;16.73;64.90
50430;BME280;36359;41.556;-8.418;2023-04-08T08:56:55;100023.03;;;16.77;64.57
50430;BME280;36359;41.556;-8.418;2023-04-08T08:59:21;100026.66;;;16.84;65.18
50430;BME280;36359;41.556;-8.418;2023-04-08T09:01:47;100030.28;;;16.70;63.66
50430;BME280;36359;41.556;-8.418;2023-04-08T09:04:15;100024.75;;;16.85;64.48
50430;BME280;36359;41.556;-8.418;2023-04-08T09:06:44;100022.78;;;17.00;63.43
50430;BME280;36359;41.556;-8.418;2023-04-08T09:09:12;100031.94;;;17.14;62.84
50430;BME280;36359;41.556;-8.418;2023-04-08T09:11:40;100027.59;;;17.26;62.40
50430;BME280;36359;41.556;-8.418;2023-04-08T09:14:26;100034.31;;;17.52;61.90
50430;BME280;36359;41.556;-8.418;2023-04-08T09:16:52;100031.00;;;17.63;61.19
50430;BME280;36359;41.556;-8.418;2023-04-08T09:19:18;100033.56;;;17.71;61.93
50430;BME280;36359;41.556;-8.418;2023-04-08T09:21:43;100035.38;;;17.85;61.15
50430;BME280;36359;41.556;-8.418;2023-04-08T09:24:27;100026.06;;;17.80;62.74
50430;BME280;36359;41.556;-8.418;2023-04-08T09:26:53;100036.00;;;17.94;61.35
50430;BME280;36359;41.556;-8.418;2023-04-08T09:29:22;100032.47;;;18.00;59.64
50430;BME280;36359;41.556;-8.418;2023-04-08T09:31:55;100035.88;;;18.09;60.59
50430;BME280;36359;41.556;-8.418;2023-04-08T09:34:22;100038.88;;;18.27;59.86
50430;BME280;36359;41.556;-8.418;2023-04-08T09:36:48;100038.06;;;18.47;60.40
50430;BME280;36359;41.556;-8.418;2023-04-08T09:39:14;100036.81;;;18.43;59.03
50430;BME280;36359;41.556;-8.418;2023-04-08T09:41:41;100042.31;;;18.56;58.78
50430;BME280;36359;41.556;-8.418;2023-04-08T09:44:09;100040.44;;;18.63;57.26
50430;BME280;36359;41.556;-8.418;2023-04-08T09:49:12;100051.25;;;18.84;55.58
50430;BME280;36359;41.556;-8.418;2023-04-08T09:55:03;100037.28;;;19.19;54.02
50430;BME280;36359;41.556;-8.418;2023-04-08T10:00:10;100036.00;;;19.42;51.50
50430;BME280;36359;41.556;-8.418;2023-04-08T10:02:55;100038.47;;;19.63;49.84
50430;BME280;36359;41.556;-8.418;2023-04-08T10:05:23;100032.72;;;19.85;51.34
50430;BME280;36359;41.556;-8.418;2023-04-08T10:07:50;100027.81;;;19.93;49.10
50430;BME280;36359;41.556;-8.418;2023-04-08T10:10:16;100029.91;;;19.98;49.87
50430;BME280;36359;41.556;-8.418;2023-04-08T10:12:42;100033.47;;;20.05;48.00
50430;BME280;36359;41.556;-8.418;2023-04-08T10:17:50;100031.00;;;20.29;45.82
50430;BME280;36359;41.556;-8.418;2023-04-08T10:23:06;100019.94;;;20.42;47.00
50430;BME280;36359;41.556;-8.418;2023-04-08T10:25:37;100024.75;;;20.47;46.04
50430;BME280;36359;41.556;-8.418;2023-04-08T10:33:33;100016.06;;;21.06;45.53
50430;BME280;36359;41.556;-8.418;2023-04-08T10:36:09;100019.16;;;21.17;46.20
50430;BME280;36359;41.556;-8.418;2023-04-08T10:38:37;100013.78;;;21.22;46.17
50430;BME280;36359;41.556;-8.418;2023-04-08T10:41:03;100015.94;;;21.45;46.34
50430;BME280;36359;41.556;-8.418;2023-04-08T10:43:33;100018.06;;;21.61;46.77
50430;BME280;36359;41.556;-8.418;2023-04-08T10:45:59;100018.63;;;21.51;44.30
50430;BME280;36359;41.556;-8.418;2023-04-08T10:48:25;100010.63;;;21.43;44.53
50430;BME280;36359;41.556;-8.418;2023-04-08T10:51:04;100015.19;;;21.56;44.86
50430;BME280;36359;41.556;-8.418;2023-04-08T10:53:33;100014.78;;;21.71;44.19
50430;BME280;36359;41.556;-8.418;2023-04-08T10:56:09;100014.88;;;21.83;43.74
50430;BME280;36359;41.556;-8.418;2023-04-08T11:01:06;100008.09;;;21.78;46.10
50430;BME280;36359;41.556;-8.418;2023-04-08T11:03:32;100023.16;;;22.31;46.17
50430;BME280;36359;41.556;-8.418;2023-04-08T11:05:59;100009.50;;;22.36;47.30
50430;BME280;36359;41.556;-8.418;2023-04-08T11:08:30;100008.25;;;22.32;46.32
50430;BME280;36359;41.556;-8.418;2023-04-08T11:10:58;100011.97;;;22.56;46.14
50430;BME280;36359;41.556;-8.418;2023-04-08T11:13:26;100013.00;;;22.43;47.26
50430;BME280;36359;41.556;-8.418;2023-04-08T11:15:54;100014.50;;;22.70;44.99
50430;BME280;36359;41.556;-8.418;2023-04-08T11:18:21;100007.81;;;22.89;46.12
50430;BME280;36359;41.556;-8.418;2023-04-08T11:20:51;100011.28;;;22.84;44.95
50430;BME280;36359;41.556;-8.418;2023-04-08T11:23:17;100013.25;;;22.96;45.65
50430;BME280;36359;41.556;-8.418;2023-04-08T11:25:44;100004.78;;;22.90;44.73
50430;BME280;36359;41.556;-8.418;2023-04-08T11:28:11;100003.31;;;22.76;44.90
50430;BME280;36359;41.556;-8.418;2023-04-08T11:30:41;100003.13;;;22.89;45.86
50430;BME280;36359;41.556;-8.418;2023-04-08T11:33:07;100003.88;;;22.97;44.42
50430;BME280;36359;41.556;-8.418;2023-04-08T11:35:33;100002.28;;;22.89;42.71
50430;BME280;36359;41.556;-8.418;2023-04-08T11:38:04;100002.31;;;23.01;43.86
50430;BME280;36359;41.556;-8.418;2023-04-08T11:40:29;99991.84;;;23.26;43.81
50430;BME280;36359;41.556;-8.418;2023-04-08T11:42:55;99982.13;;;23.35;42.96
50430;BME280;36359;41.556;-8.418;2023-04-08T11:45:22;99979.28;;;23.83;42.72
50430;BME280;36359;41.556;-8.418;2023-04-08T11:47:48;99980.22;;;23.76;41.97
50430;BME280;36359;41.556;-8.418;2023-04-08T11:50:31;99981.44;;;23.80;41.22
50430;BME280;36359;41.556;-8.418;2023-04-08T11:52:57;99973.34;;;24.19;40.52
50430;BME280;36359;41.556;-8.418;2023-04-08T11:55:27;99972.03;;;23.82;40.09
50430;BME280;36359;41.556;-8.418;2023-04-08T11:57:55;99982.75;;;24.18;39.77
50430;BME280;36359;41.556;-8.418;2023-04-08T12:00:22;99978.38;;;24.22;38.85
50430;BME280;36359;41.556;-8.418;2023-04-08T12:02:48;99972.84;;;24.22;38.28
50430;BME280;36359;41.556;-8.418;2023-04-08T12:05:15;99961.53;;;24.24;38.61
50430;BME280;36359;41.556;-8.418;2023-04-08T12:07:41;99966.47;;;24.22;37.36
50430;BME280;36359;41.556;-8.418;2023-04-08T12:10:08;99953.44;;;23.94;37.14
50430;BME280;36359;41.556;-8.418;2023-04-08T12:12:34;99958.69;;;24.07;37.79
50430;BME280;36359;41.556;-8.418;2023-04-08T12:15:00;99961.94;;;23.75;38.42
50430;BME280;36359;41.556;-8.418;2023-04-08T12:17:26;99960.59;;;24.35;35.88
50430;BME280;36359;41.556;-8.418;2023-04-08T12:19:52;99963.13;;;24.37;37.37
50430;BME280;36359;41.556;-8.418;2023-04-08T12:22:18;99951.28;;;24.24;36.46
50430;BME280;36359;41.556;-8.418;2023-04-08T12:24:44;99945.63;;;24.19;36.50
50430;BME280;36359;41.556;-8.418;2023-04-08T12:27:09;99948.53;;;24.41;36.26
50430;BME280;36359;41.556;-8.418;2023-04-08T12:29:35;99953.22;;;24.41;35.02
50430;BME280;36359;41.556;-8.418;2023-04-08T12:32:01;99952.34;;;24.69;33.64
50430;BME280;36359;41.556;-8.418;2023-04-08T12:34:28;99949.53;;;25.03;34.82
50430;BME280;36359;41.556;-8.418;2023-04-08T12:36:54;99943.53;;;24.72;35.02
50430;BME280;36359;41.556;-8.418;2023-04-08T12:39:20;99940.47;;;25.24;35.13
50430;BME280;36359;41.556;-8.418;2023-04-08T12:41:46;99945.06;;;25.35;35.01
50430;BME280;36359;41.556;-8.418;2023-04-08T12:44:12;99943.34;;;25.51;32.96
50430;BME280;36359;41.556;-8.418;2023-04-08T12:46:38;99951.16;;;25.54;33.13
50430;BME280;36359;41.556;-8.418;2023-04-08T12:49:03;99940.97;;;25.21;32.80
50430;BME280;36359;41.556;-8.418;2023-04-08T12:51:29;99944.25;;;25.57;33.06
50430;BME280;36359;41.556;-8.418;2023-04-08T12:53:55;99952.50;;;25.52;33.49
50430;BME280;36359;41.556;-8.418;2023-04-08T12:56:21;99943.50;;;25.23;30.98
50430;BME280;36359;41.556;-8.418;2023-04-08T12:58:47;99938.00;;;25.11;32.88
50430;BME280;36359;41.556;-8.418;2023-04-08T13:01:12;99944.91;;;25.25;34.48
50430;BME280;36359;41.556;-8.418;2023-04-08T13:03:38;99954.44;;;24.96;35.17
50430;BME280;36359;41.556;-8.418;2023-04-08T13:06:05;99946.03;;;24.74;36.50
50430;BME280;36359;41.556;-8.418;2023-04-08T13:08:31;99941.38;;;25.13;37.29
50430;BME280;36359;41.556;-8.418;2023-04-08T13:10:56;99950.97;;;25.22;37.21
50430;BME280;36359;41.556;-8.418;2023-04-08T13:13:22;99945.78;;;25.48;37.86
50430;BME280;36359;41.556;-8.418;2023-04-08T13:15:48;99944.47;;;25.33;39.02